Time;durP1;ratioP1;P1;durP2;ratioP2;P2;SDS_P1;SDS_P2;PMS_P1;PMS_P2;Temp;Humidity;BMP_temperature;BMP_pressure;BME280_temperature;BME280_humidity;BME280_pressure;Samples;Min_cycle;Max_cycle;Signal;HPM_P1;HPM_P2
2021/05/14 00:00:09;;;;;;;29.83;21.42;;;;;;;;;;5040349;28;20637;-70
2021/05/14 00:02:35;;;;;;;26.38;19.75;;;;;;;;;;5028750;28;20258;-70
2021/05/14 00:05:00;;;;;;;29.23;19.77;;;;;;;;;;5036483;28;20645;-71
2021/05/14 00:07:26;;;;;;;26.23;18.98;;;;;;;;;;5029239;28;20193;-69
2021/05/14 00:09:53;;;;;;;29.33;20.40;;;;;;;;;;5037123;28;20213;-70
2021/05/14 00:12:18;;;;;;;30.27;20.08;;;;;;;;;;5024239;28;20211;-70
2021/05/14 00:14:43;;;;;;;29.63;20.05;;;;;;;;;;5041562;28;20198;-70
2021/05/14 00:17:09;;;;;;;28.98;20.23;;;;;;;;;;5027229;28;20189;-70
2021/05/14 00:19:34;;;;;;;30.10;20.55;;;;;;;;;;5033888;28;20280;-70
2021/05/14 00:22:00;;;;;;;28.10;20.30;;;;;;;;;;5033841;28;20224;-70
2021/05/14 00:24:25;;;;;;;28.33;20.08;;;;;;;;;;5029039;28;20645;-70
2021/05/14 00:26:50;;;;;;;27.25;19.67;;;;;;;;;;5024879;28;20194;-70
2021/05/14 00:29:16;;;;;;;29.37;21.07;;;;;;;;;;5020296;28;20209;-70
2021/05/14 00:31:41;;;;;;;25.25;18.50;;;;;;;;;;5028710;28;20254;-70
2021/05/14 00:34:06;;;;;;;27.25;20.08;;;;;;;;;;5020900;28;20612;-70
2021/05/14 00:36:32;;;;;;;30.85;20.67;;;;;;;;;;5029944;28;20589;-70
2021/05/14 00:38:57;;;;;;;31.77;21.08;;;;;;;;;;5023415;28;20190;-70
2021/05/14 00:41:22;;;;;;;30.52;20.52;;;;;;;;;;5029190;28;20660;-70
2021/05/14 00:43:48;;;;;;;30.10;20.02;;;;;;;;;;5022547;28;20708;-70
2021/05/14 00:46:13;;;;;;;27.65;19.42;;;;;;;;;;5024146;28;20189;-70
2021/05/14 00:48:39;;;;;;;29.85;21.38;;;;;;;;;;5025462;28;20189;-69
2021/05/14 00:51:05;;;;;;;31.40;22.20;;;;;;;;;;5031718;28;20233;-70
2021/05/14 00:53:31;;;;;;;31.27;21.92;;;;;;;;;;5029389;28;20189;-69
2021/05/14 00:55:56;;;;;;;37.03;22.80;;;;;;;;;;5017338;28;20198;-69
2021/05/14 00:58:22;;;;;;;34.20;22.38;;;;;;;;;;5029338;28;20561;-69
2021/05/14 01:00:47;;;;;;;34.55;22.67;;;;;;;;;;5022802;28;20275;-69
2021/05/14 01:03:15;;;;;;;36.20;22.67;;;;;;;;;;5028954;28;20251;-69
2021/05/14 01:05:42;;;;;;;36.22;24.17;;;;;;;;;;5021465;28;20577;-69
2021/05/14 01:08:08;;;;;;;32.80;23.05;;;;;;;;;;5029577;28;20182;-69
2021/05/14 01:10:33;;;;;;;33.10;23.58;;;;;;;;;;5022179;28;20216;-72
2021/05/14 01:12:59;;;;;;;40.45;24.55;;;;;;;;;;5029578;28;20553;-70
2021/05/14 01:15:24;;;;;;;36.38;24.35;;;;;;;;;;5021024;28;20204;-69
2021/05/14 01:17:49;;;;;;;35.33;24.70;;;;;;;;;;5031196;28;20803;-69
2021/05/14 01:20:15;;;;;;;37.72;24.63;;;;;;;;;;5028433;28;20181;-69
2021/05/14 01:22:42;;;;;;;40.75;24.92;;;;;;;;;;5021667;28;20582;-70
2021/05/14 01:25:07;;;;;;;40.10;25.52;;;;;;;;;;5026691;28;20618;-70
2021/05/14 01:27:33;;;;;;;37.35;25.58;;;;;;;;;;5021244;28;20217;-70
2021/05/14 01:29:58;;;;;;;41.15;26.83;;;;;;;;;;5030133;28;20222;-70
2021/05/14 01:32:24;;;;;;;39.08;26.77;;;;;;;;;;5020006;28;20197;-70
2021/05/14 01:34:49;;;;;;;41.15;26.73;;;;;;;;;;5029063;28;20194;-70
2021/05/14 01:37:15;;;;;;;45.25;28.33;;;;;;;;;;5020736;28;20598;-70
2021/05/14 01:39:40;;;;;;;41.55;27.63;;;;;;;;;;5029687;28;20212;-70
2021/05/14 01:42:06;;;;;;;41.03;26.65;;;;;;;;;;5021675;28;20190;-70
2021/05/14 01:44:31;;;;;;;43.03;27.75;;;;;;;;;;5028296;28;20431;-70
2021/05/14 01:46:57;;;;;;;43.65;28.20;;;;;;;;;;5021687;28;20223;-70
2021/05/14 01:49:23;;;;;;;44.22;27.05;;;;;;;;;;5032264;28;20228;-70
2021/05/14 01:51:48;;;;;;;43.72;27.35;;;;;;;;;;5034702;28;20178;-70
2021/05/14 01:54:15;;;;;;;44.92;28.45;;;;;;;;;;5030483;28;20193;-70
2021/05/14 01:56:48;;;;;;;46.20;29.33;;;;;;;;;;5037984;28;20538;-70
2021/05/14 01:59:14;;;;;;;44.08;28.02;;;;;;;;;;5025026;28;20197;-70
2021/05/14 02:01:40;;;;;;;46.75;30.75;;;;;;;;;;5033145;28;20251;-70
2021/05/14 02:04:06;;;;;;;47.53;29.65;;;;;;;;;;5026053;28;20497;-70
2021/05/14 02:06:31;;;;;;;46.40;28.95;;;;;;;;;;5038111;28;20189;-70
2021/05/14 02:08:56;;;;;;;43.60;29.15;;;;;;;;;;5027197;28;20189;-70
2021/05/14 02:11:22;;;;;;;44.70;29.52;;;;;;;;;;5034067;28;20677;-70
2021/05/14 02:13:47;;;;;;;43.28;28.92;;;;;;;;;;5029821;28;20228;-70
2021/05/14 02:16:13;;;;;;;46.17;28.50;;;;;;;;;;5033936;28;20224;-70
2021/05/14 02:18:39;;;;;;;43.67;28.63;;;;;;;;;;5027819;28;20213;-70
2021/05/14 02:21:06;;;;;;;48.83;30.20;;;;;;;;;;5032021;28;20181;-70
2021/05/14 02:23:31;;;;;;;44.47;28.95;;;;;;;;;;5033715;28;20660;-70
2021/05/14 02:25:57;;;;;;;39.33;28.02;;;;;;;;;;5024277;28;20190;-70
2021/05/14 02:28:23;;;;;;;43.65;29.17;;;;;;;;;;5034543;28;20263;-70
2021/05/14 02:30:48;;;;;;;44.92;29.42;;;;;;;;;;5022199;28;20220;-70
2021/05/14 02:33:14;;;;;;;44.15;29.88;;;;;;;;;;5041366;28;20205;-70
2021/05/14 02:35:39;;;;;;;49.08;31.42;;;;;;;;;;5027626;28;20211;-70
2021/05/14 02:38:06;;;;;;;46.75;28.80;;;;;;;;;;5040166;28;20270;-70
2021/05/14 02:40:33;;;;;;;46.45;29.83;;;;;;;;;;5029306;28;20228;-70
2021/05/14 02:42:58;;;;;;;41.50;28.95;;;;;;;;;;5033613;28;20427;-70
2021/05/14 02:45:24;;;;;;;48.90;30.42;;;;;;;;;;5032148;28;20311;-70
2021/05/14 02:47:50;;;;;;;42.17;29.10;;;;;;;;;;5038268;28;20324;-70
2021/05/14 02:50:16;;;;;;;45.95;30.65;;;;;;;;;;5032992;28;20300;-70
2021/05/14 02:52:41;;;;;;;45.55;29.75;;;;;;;;;;5039927;28;20175;-70
2021/05/14 02:55:08;;;;;;;44.40;30.02;;;;;;;;;;5029608;28;20197;-70
2021/05/14 02:57:33;;;;;;;49.90;30.30;;;;;;;;;;5034898;28;20190;-70
2021/05/14 02:59:59;;;;;;;49.70;29.70;;;;;;;;;;5040908;28;20586;-70
2021/05/14 03:02:24;;;;;;;46.85;30.70;;;;;;;;;;5030807;28;20234;-70
2021/05/14 03:04:49;;;;;;;45.85;30.70;;;;;;;;;;5040047;28;20232;-70
2021/05/14 03:07:15;;;;;;;45.58;29.98;;;;;;;;;;5031406;28;20196;-70
2021/05/14 03:09:40;;;;;;;46.67;30.20;;;;;;;;;;5036622;28;20343;-69
2021/05/14 03:12:06;;;;;;;48.55;30.45;;;;;;;;;;5027770;28;20315;-69
2021/05/14 03:14:31;;;;;;;51.17;31.00;;;;;;;;;;5035133;28;20311;-69
2021/05/14 03:16:57;;;;;;;48.07;30.30;;;;;;;;;;5028810;28;20181;-69
2021/05/14 03:19:22;;;;;;;51.10;32.03;;;;;;;;;;5033967;28;20836;-69
2021/05/14 03:21:47;;;;;;;50.13;31.67;;;;;;;;;;5035732;28;20181;-69
2021/05/14 03:24:13;;;;;;;54.20;33.63;;;;;;;;;;5038019;28;20217;-69
2021/05/14 03:26:38;;;;;;;50.80;32.47;;;;;;;;;;5035675;28;20634;-69
2021/05/14 03:29:04;;;;;;;55.00;34.30;;;;;;;;;;5034527;28;20248;-69
2021/05/14 03:31:30;;;;;;;52.73;33.70;;;;;;;;;;5031528;28;20639;-69
2021/05/14 03:33:55;;;;;;;58.67;35.00;;;;;;;;;;5023895;28;20189;-69
2021/05/14 03:36:21;;;;;;;60.10;34.80;;;;;;;;;;5028575;28;20216;-69
2021/05/14 03:38:47;;;;;;;54.43;33.97;;;;;;;;;;5021970;28;20194;-69
2021/05/14 03:41:30;;;;;;;56.70;35.47;;;;;;;;;;5028856;28;20519;-71
2021/05/14 03:43:56;;;;;;;52.57;33.40;;;;;;;;;;5022260;28;20241;-69
2021/05/14 03:46:21;;;;;;;49.07;31.27;;;;;;;;;;5028320;28;20193;-71
2021/05/14 03:48:47;;;;;;;51.13;33.40;;;;;;;;;;5027053;28;20208;-71
2021/05/14 03:51:12;;;;;;;48.30;31.50;;;;;;;;;;5038655;28;20198;-69
2021/05/14 03:53:38;;;;;;;48.57;31.17;;;;;;;;;;5027528;28;20193;-69
2021/05/14 03:56:03;;;;;;;48.63;32.70;;;;;;;;;;5036040;28;20185;-69
2021/05/14 03:58:29;;;;;;;48.20;30.85;;;;;;;;;;5033190;28;20205;-69
2021/05/14 04:00:54;;;;;;;48.90;30.10;;;;;;;;;;5040073;28;20182;-70
2021/05/14 04:03:21;;;;;;;47.35;31.00;;;;;;;;;;5037823;28;20210;-69
2021/05/14 04:05:48;;;;;;;44.53;30.33;;;;;;;;;;5027852;28;20209;-69
2021/05/14 04:08:13;;;;;;;50.22;31.70;;;;;;;;;;5036643;28;20656;-70
2021/05/14 04:16:05;;;;;;;53.55;34.22;;;;;;;;;;5028805;28;20810;-70
2021/05/14 04:18:31;;;;;;;53.15;33.40;;;;;;;;;;5031573;28;20202;-70
2021/05/14 04:20:57;;;;;;;52.97;33.47;;;;;;;;;;5028582;28;20193;-70
2021/05/14 04:23:22;;;;;;;49.55;31.88;;;;;;;;;;5030803;28;20200;-70
2021/05/14 04:25:47;;;;;;;51.20;32.33;;;;;;;;;;5026703;28;20256;-70
2021/05/14 04:28:13;;;;;;;51.67;31.67;;;;;;;;;;5038327;28;20196;-70
2021/05/14 04:30:39;;;;;;;52.80;31.52;;;;;;;;;;5025383;28;20210;-70
2021/05/14 04:33:05;;;;;;;50.70;31.98;;;;;;;;;;5028015;28;20214;-70
2021/05/14 04:35:31;;;;;;;48.95;31.42;;;;;;;;;;5020106;28;20205;-70
2021/05/14 04:37:57;;;;;;;51.20;31.52;;;;;;;;;;5029880;28;20283;-70
2021/05/14 04:40:22;;;;;;;47.55;31.40;;;;;;;;;;5025313;28;20273;-70
2021/05/14 04:42:47;;;;;;;47.15;30.75;;;;;;;;;;5020214;28;20221;-69
2021/05/14 04:45:13;;;;;;;46.72;30.02;;;;;;;;;;5029022;28;20268;-70
2021/05/14 04:47:39;;;;;;;44.65;30.40;;;;;;;;;;5020868;28;20217;-69
2021/05/14 04:50:05;;;;;;;46.15;29.58;;;;;;;;;;5034149;28;20202;-70
2021/05/14 04:52:31;;;;;;;48.40;31.42;;;;;;;;;;5033091;28;20186;-70
2021/05/14 04:54:56;;;;;;;50.17;30.70;;;;;;;;;;5032825;28;20197;-69
2021/05/14 04:57:22;;;;;;;46.88;28.92;;;;;;;;;;5023021;28;20190;-70
2021/05/14 04:59:48;;;;;;;46.30;30.20;;;;;;;;;;5033699;28;20197;-70
2021/05/14 05:02:13;;;;;;;46.25;30.45;;;;;;;;;;5023865;28;20224;-70
2021/05/14 05:04:40;;;;;;;48.95;30.42;;;;;;;;;;5027225;28;20739;-71
2021/05/14 05:07:08;;;;;;;45.10;28.92;;;;;;;;;;5021812;28;20843;-70
2021/05/14 05:09:34;;;;;;;47.17;30.10;;;;;;;;;;5028971;28;20269;-71
2021/05/14 05:12:00;;;;;;;43.78;29.90;;;;;;;;;;5028901;28;20660;-70
2021/05/14 05:14:27;;;;;;;46.45;30.40;;;;;;;;;;5019300;28;20194;-71
2021/05/14 05:16:52;;;;;;;42.75;27.85;;;;;;;;;;5029222;28;21327;-71
2021/05/14 05:19:18;;;;;;;42.55;27.88;;;;;;;;;;5019286;28;20661;-70
2021/05/14 05:21:43;;;;;;;40.13;26.50;;;;;;;;;;5028511;28;20273;-70
2021/05/14 05:24:09;;;;;;;41.70;26.52;;;;;;;;;;5018130;28;20227;-70
2021/05/14 05:26:34;;;;;;;42.45;26.85;;;;;;;;;;5028185;28;20248;-70
2021/05/14 05:29:00;;;;;;;39.67;26.90;;;;;;;;;;5018296;28;20212;-70
2021/05/14 05:31:25;;;;;;;40.17;26.98;;;;;;;;;;5026271;28;20198;-70
2021/05/14 05:33:51;;;;;;;39.38;26.17;;;;;;;;;;5019030;28;20194;-70
2021/05/14 05:36:16;;;;;;;42.85;26.25;;;;;;;;;;5027828;28;20190;-70
2021/05/14 05:38:41;;;;;;;45.25;28.20;;;;;;;;;;5018643;28;20239;-71
2021/05/14 05:41:07;;;;;;;39.40;26.30;;;;;;;;;;5026584;28;20627;-71
2021/05/14 05:43:32;;;;;;;38.63;26.40;;;;;;;;;;5026925;28;20863;-70
2021/05/14 05:45:57;;;;;;;41.17;25.48;;;;;;;;;;5019197;28;20713;-71
2021/05/14 05:48:23;;;;;;;35.95;24.42;;;;;;;;;;5028061;28;20197;-71
2021/05/14 05:50:49;;;;;;;33.67;23.58;;;;;;;;;;5024648;28;20667;-70
2021/05/14 05:53:15;;;;;;;40.25;25.02;;;;;;;;;;5034531;28;20196;-70
2021/05/14 05:55:41;;;;;;;41.72;25.58;;;;;;;;;;5027946;28;20545;-70
2021/05/14 05:58:08;;;;;;;44.45;27.25;;;;;;;;;;5032951;28;20196;-71
2021/05/14 06:00:34;;;;;;;42.50;27.38;;;;;;;;;;5020378;28;22067;-70
2021/05/14 06:03:02;;;;;;;40.47;26.77;;;;;;;;;;5027158;28;20292;-71
2021/05/14 06:05:27;;;;;;;41.95;26.60;;;;;;;;;;5017127;28;20648;-70
2021/05/14 06:07:52;;;;;;;36.45;25.35;;;;;;;;;;5028296;28;20196;-70
2021/05/14 06:10:18;;;;;;;40.63;27.02;;;;;;;;;;5016186;28;20240;-70
2021/05/14 06:12:43;;;;;;;35.58;24.05;;;;;;;;;;5027406;28;20185;-71
2021/05/14 06:15:09;;;;;;;39.42;24.95;;;;;;;;;;5028431;28;20205;-71
2021/05/14 06:17:39;;;;;;;35.60;23.88;;;;;;;;;;5021283;28;20189;-70
2021/05/14 06:20:07;;;;;;;33.95;23.48;;;;;;;;;;5027346;28;20258;-71
2021/05/14 06:22:32;;;;;;;37.20;24.20;;;;;;;;;;5020615;28;20212;-71
2021/05/14 06:24:57;;;;;;;33.72;23.10;;;;;;;;;;5025626;28;20264;-71
2021/05/14 06:27:23;;;;;;;35.28;23.58;;;;;;;;;;5018502;28;20193;-71
2021/05/14 06:29:48;;;;;;;40.17;24.50;;;;;;;;;;5027949;28;20281;-71
2021/05/14 06:32:14;;;;;;;44.50;26.40;;;;;;;;;;5020845;28;20361;-71
2021/05/14 06:34:39;;;;;;;42.17;25.25;;;;;;;;;;5027269;28;20618;-70
2021/05/14 06:37:05;;;;;;;44.53;27.05;;;;;;;;;;5019087;28;22282;-71
2021/05/14 06:39:30;;;;;;;42.78;27.42;;;;;;;;;;5026535;28;20177;-71
2021/05/14 06:41:56;;;;;;;43.63;28.45;;;;;;;;;;5023916;28;20201;-71
2021/05/14 06:44:21;;;;;;;42.47;27.40;;;;;;;;;;5018274;28;20335;-71
2021/05/14 06:46:46;;;;;;;44.95;28.02;;;;;;;;;;5028384;28;21547;-71
2021/05/14 06:49:12;;;;;;;43.20;28.15;;;;;;;;;;5019376;28;20177;-71
2021/05/14 06:51:38;;;;;;;41.63;27.67;;;;;;;;;;5028785;28;20548;-70
2021/05/14 06:54:04;;;;;;;41.25;26.38;;;;;;;;;;5018990;28;20186;-71
2021/05/14 06:56:29;;;;;;;40.78;27.50;;;;;;;;;;5026784;28;20206;-71
2021/05/14 06:58:55;;;;;;;43.25;26.83;;;;;;;;;;5015541;28;20193;-71
2021/05/14 07:01:23;;;;;;;47.10;27.38;;;;;;;;;;5028012;28;21661;-71
2021/05/14 07:03:49;;;;;;;44.55;28.38;;;;;;;;;;5018439;28;20591;-72
2021/05/14 07:06:15;;;;;;;47.65;28.73;;;;;;;;;;5027773;28;20256;-72
2021/05/14 07:08:42;;;;;;;49.38;28.85;;;;;;;;;;5016831;28;20198;-72
2021/05/14 07:11:07;;;;;;;47.55;28.00;;;;;;;;;;5027206;28;20217;-72
2021/05/14 07:13:33;;;;;;;50.10;29.42;;;;;;;;;;5026903;28;21264;-73
2021/05/14 07:15:59;;;;;;;43.58;28.20;;;;;;;;;;5017350;28;20232;-71
2021/05/14 07:18:25;;;;;;;51.10;29.55;;;;;;;;;;5029575;28;20929;-72
2021/05/14 07:20:50;;;;;;;55.33;31.48;;;;;;;;;;5024820;28;20190;-73
2021/05/14 07:23:15;;;;;;;57.40;31.95;;;;;;;;;;5029084;28;20238;-73
2021/05/14 07:25:41;;;;;;;51.92;31.38;;;;;;;;;;5022899;28;20739;-73
2021/05/14 07:28:06;;;;;;;50.40;30.90;;;;;;;;;;5029865;28;20650;-73
2021/05/14 07:30:31;;;;;;;46.58;29.65;;;;;;;;;;5023366;28;20659;-73
2021/05/14 07:32:57;;;;;;;49.15;28.80;;;;;;;;;;5032968;28;20554;-72
2021/05/14 07:35:23;;;;;;;45.28;27.83;;;;;;;;;;5024006;28;21962;-72
2021/05/14 07:37:48;;;;;;;44.25;28.90;;;;;;;;;;5027576;28;20285;-72
2021/05/14 07:40:13;;;;;;;43.78;27.98;;;;;;;;;;5022498;28;20182;-72
2021/05/14 07:42:39;;;;;;;47.50;30.15;;;;;;;;;;5025488;28;20279;-72
2021/05/14 07:45:05;;;;;;;45.78;28.08;;;;;;;;;;5030737;28;20229;-72
2021/05/14 07:47:30;;;;;;;43.10;26.35;;;;;;;;;;5024811;28;20633;-73
2021/05/14 07:49:56;;;;;;;46.83;29.67;;;;;;;;;;5031231;28;20256;-73
2021/05/14 07:52:21;;;;;;;45.70;29.25;;;;;;;;;;5020308;28;20208;-73
2021/05/14 07:54:46;;;;;;;44.05;27.85;;;;;;;;;;5031234;28;20181;-73
2021/05/14 07:57:12;;;;;;;45.85;28.75;;;;;;;;;;5022122;28;20203;-73
2021/05/14 07:59:37;;;;;;;46.97;28.92;;;;;;;;;;5030453;28;20584;-72
2021/05/14 08:02:02;;;;;;;48.50;28.73;;;;;;;;;;5021010;28;20296;-73
2021/05/14 08:04:28;;;;;;;48.53;29.65;;;;;;;;;;5031916;28;20190;-70
2021/05/14 08:06:53;;;;;;;47.20;29.73;;;;;;;;;;5022544;28;22234;-70
2021/05/14 08:09:22;;;;;;;45.30;28.77;;;;;;;;;;5029285;28;20192;-70
2021/05/14 08:11:47;;;;;;;46.42;28.55;;;;;;;;;;5028272;28;20194;-71
2021/05/14 08:14:12;;;;;;;46.63;28.90;;;;;;;;;;5021056;28;20453;-71
2021/05/14 08:16:38;;;;;;;42.15;28.17;;;;;;;;;;5029708;28;20194;-70
2021/05/14 08:19:03;;;;;;;39.40;25.95;;;;;;;;;;5021064;28;20193;-70
2021/05/14 08:21:29;;;;;;;40.10;26.05;;;;;;;;;;5029599;28;20268;-70
2021/05/14 08:23:54;;;;;;;42.00;26.00;;;;;;;;;;5020139;28;20641;-71
2021/05/14 08:26:20;;;;;;;41.60;27.13;;;;;;;;;;5029988;28;20185;-70
2021/05/14 08:28:45;;;;;;;44.58;27.80;;;;;;;;;;5021303;28;20197;-71
2021/05/14 08:31:10;;;;;;;41.63;27.02;;;;;;;;;;5030165;28;20267;-70
2021/05/14 08:33:36;;;;;;;39.42;26.38;;;;;;;;;;5021563;28;20682;-70
2021/05/14 08:36:01;;;;;;;43.50;27.08;;;;;;;;;;5032035;28;20188;-70
2021/05/14 08:38:27;;;;;;;37.72;26.02;;;;;;;;;;5019369;28;20901;-70
2021/05/14 08:40:53;;;;;;;34.03;23.63;;;;;;;;;;5030414;28;20182;-71
2021/05/14 08:43:19;;;;;;;36.28;24.90;;;;;;;;;;5028716;28;20625;-71
2021/05/14 08:45:44;;;;;;;34.53;24.13;;;;;;;;;;5022962;28;20198;-71
2021/05/14 08:48:15;;;;;;;36.15;25.42;;;;;;;;;;5030088;28;20197;-70
2021/05/14 08:50:41;;;;;;;35.53;24.63;;;;;;;;;;5023477;28;20268;-69
2021/05/14 08:53:07;;;;;;;33.00;23.30;;;;;;;;;;5026644;28;20210;-69
2021/05/14 08:55:33;;;;;;;35.13;23.65;;;;;;;;;;5024692;28;20193;-69
2021/05/14 08:57:59;;;;;;;41.47;25.88;;;;;;;;;;5029859;28;20193;-69
2021/05/14 09:00:26;;;;;;;32.35;22.88;;;;;;;;;;5023421;28;20663;-71
2021/05/14 09:02:53;;;;;;;29.00;21.35;;;;;;;;;;5028000;28;20569;-70
2021/05/14 09:05:33;;;;;;;32.42;22.63;;;;;;;;;;5021117;28;20217;-70
2021/05/14 09:07:59;;;;;;;28.65;21.67;;;;;;;;;;5027841;28;20194;-71
2021/05/14 09:10:34;;;;;;;30.13;20.92;;;;;;;;;;5023051;28;20697;-71
2021/05/14 09:13:00;;;;;;;29.10;21.10;;;;;;;;;;5029179;28;20196;-71
2021/05/14 09:15:33;;;;;;;30.20;22.27;;;;;;;;;;5022067;28;20193;-72
2021/05/14 09:18:04;;;;;;;28.58;20.15;;;;;;;;;;5030320;28;20185;-72
2021/05/14 09:20:40;;;;;;;30.17;20.98;;;;;;;;;;5024434;28;20239;-71
2021/05/14 09:23:15;;;;;;;32.55;21.95;;;;;;;;;;5028321;28;20288;-71
2021/05/14 09:25:49;;;;;;;27.92;20.65;;;;;;;;;;5029520;28;20185;-71
2021/05/14 09:28:41;;;;;;;30.88;21.65;;;;;;;;;;5027402;28;20205;-71
2021/05/14 09:31:08;;;;;;;31.73;21.90;;;;;;;;;;5023143;28;20275;-70
2021/05/14 09:33:39;;;;;;;31.33;21.83;;;;;;;;;;5028530;28;20186;-70
2021/05/14 09:36:07;;;;;;;28.60;20.50;;;;;;;;;;5025655;28;20193;-70
2021/05/14 09:38:49;;;;;;;31.60;20.80;;;;;;;;;;5021723;28;20186;-70
2021/05/14 09:41:24;;;;;;;25.83;19.40;;;;;;;;;;5028411;28;20211;-70
2021/05/14 09:44:02;;;;;;;26.55;19.40;;;;;;;;;;5019005;28;20237;-70
2021/05/14 09:46:39;;;;;;;22.77;16.30;;;;;;;;;;5028947;28;20239;-70
2021/05/14 09:49:10;;;;;;;22.73;15.85;;;;;;;;;;5018869;28;20770;-70
2021/05/14 09:51:55;;;;;;;21.52;16.65;;;;;;;;;;5030359;28;20198;-70
2021/05/14 09:54:23;;;;;;;20.85;15.50;;;;;;;;;;5020020;28;20649;-70
2021/05/14 09:57:14;;;;;;;23.73;16.90;;;;;;;;;;5028877;28;20340;-70
2021/05/14 09:59:40;;;;;;;21.15;16.63;;;;;;;;;;5017515;28;20190;-70
2021/05/14 10:02:36;;;;;;;21.02;16.25;;;;;;;;;;5026805;28;20214;-70
2021/05/14 10:05:06;;;;;;;19.00;14.90;;;;;;;;;;5017174;28;20220;-70
2021/05/14 10:07:32;;;;;;;21.45;15.65;;;;;;;;;;5025047;28;20773;-70
2021/05/14 10:10:01;;;;;;;20.80;15.32;;;;;;;;;;5016948;28;20204;-70
2021/05/14 10:12:26;;;;;;;21.80;14.98;;;;;;;;;;5025110;28;20668;-70
2021/05/14 10:14:52;;;;;;;19.65;15.77;;;;;;;;;;5020558;28;20197;-70
2021/05/14 10:17:18;;;;;;;20.27;15.80;;;;;;;;;;5026129;28;20230;-70
2021/05/14 10:19:46;;;;;;;21.38;16.35;;;;;;;;;;5019673;28;20463;-69
2021/05/14 10:22:12;;;;;;;22.13;16.73;;;;;;;;;;5025589;28;20202;-70
2021/05/14 10:24:44;;;;;;;22.25;15.80;;;;;;;;;;5019859;28;20671;-70
2021/05/14 10:27:23;;;;;;;19.50;15.23;;;;;;;;;;5023313;28;20190;-70
2021/05/14 10:29:57;;;;;;;20.33;16.42;;;;;;;;;;5019484;28;20197;-70
2021/05/14 10:32:47;;;;;;;18.95;14.40;;;;;;;;;;5023883;28;20533;-70
2021/05/14 10:35:31;;;;;;;19.25;14.93;;;;;;;;;;5019992;28;20683;-70
2021/05/14 10:37:57;;;;;;;21.85;15.40;;;;;;;;;;5027629;28;20273;-70
2021/05/14 10:40:28;;;;;;;18.67;14.63;;;;;;;;;;5020426;28;20277;-70
2021/05/14 10:42:58;;;;;;;16.70;13.45;;;;;;;;;;5027553;28;20185;-70
2021/05/14 10:45:32;;;;;;;15.88;13.75;;;;;;;;;;5018980;28;20945;-70
2021/05/14 10:47:58;;;;;;;16.60;12.63;;;;;;;;;;5028703;28;20194;-71
2021/05/14 10:50:35;;;;;;;20.63;13.70;;;;;;;;;;5021916;28;20205;-70
2021/05/14 10:53:30;;;;;;;21.45;12.48;;;;;;;;;;5031487;28;20695;-70
2021/05/14 10:56:17;;;;;;;17.17;12.02;;;;;;;;;;5022702;28;20181;-70
2021/05/14 10:58:47;;;;;;;12.70;11.02;;;;;;;;;;5032726;28;20711;-70
2021/05/14 11:01:31;;;;;;;15.50;12.80;;;;;;;;;;5019955;28;20285;-68
2021/05/14 11:03:58;;;;;;;13.20;11.40;;;;;;;;;;5031514;28;20668;-69
2021/05/14 11:06:25;;;;;;;15.13;11.57;;;;;;;;;;5021893;28;20324;-69
2021/05/14 11:08:57;;;;;;;11.15;9.98;;;;;;;;;;5032052;28;20280;-71
2021/05/14 11:11:22;;;;;;;11.90;10.38;;;;;;;;;;5031272;28;20216;-71
2021/05/14 11:13:49;;;;;;;15.13;10.73;;;;;;;;;;5023350;28;20193;-71
2021/05/14 11:16:30;;;;;;;14.40;11.25;;;;;;;;;;5030935;28;20396;-70
2021/05/14 11:18:56;;;;;;;13.52;11.52;;;;;;;;;;5014913;28;20194;-71
2021/05/14 11:21:22;;;;;;;12.50;11.05;;;;;;;;;;5028009;28;20182;-71
2021/05/14 11:24:05;;;;;;;15.13;11.85;;;;;;;;;;5022959;28;20193;-71
2021/05/14 11:26:31;;;;;;;16.73;11.75;;;;;;;;;;5028870;28;20209;-70
2021/05/14 11:28:56;;;;;;;15.27;12.10;;;;;;;;;;5023770;28;20330;-70
2021/05/14 11:31:24;;;;;;;14.40;11.88;;;;;;;;;;5025436;28;20232;-71
2021/05/14 11:33:52;;;;;;;13.85;11.63;;;;;;;;;;5025998;28;20205;-71
2021/05/14 11:36:18;;;;;;;13.13;11.00;;;;;;;;;;5028435;28;20258;-71
2021/05/14 11:38:55;;;;;;;16.58;12.23;;;;;;;;;;5020943;28;20599;-71
2021/05/14 11:41:28;;;;;;;14.57;11.35;;;;;;;;;;5029441;28;20722;-70
2021/05/14 11:44:03;;;;;;;15.13;11.88;;;;;;;;;;5017662;28;20232;-71
2021/05/14 11:46:32;;;;;;;13.60;11.77;;;;;;;;;;5027486;28;20198;-71
2021/05/14 11:49:08;;;;;;;13.55;11.30;;;;;;;;;;5020563;28;20186;-70
2021/05/14 11:51:34;;;;;;;13.68;11.40;;;;;;;;;;5033832;28;20262;-71
2021/05/14 11:54:13;;;;;;;16.23;12.65;;;;;;;;;;5027275;28;20768;-71
2021/05/14 11:56:39;;;;;;;14.50;12.05;;;;;;;;;;5035211;28;20196;-71
2021/05/14 11:59:05;;;;;;;12.85;10.98;;;;;;;;;;5032897;28;20188;-70
2021/05/14 12:01:38;;;;;;;13.60;11.60;;;;;;;;;;5025478;28;20221;-71
2021/05/14 12:04:04;;;;;;;13.45;11.68;;;;;;;;;;5032575;28;20228;-71
2021/05/14 12:06:29;;;;;;;17.67;12.18;;;;;;;;;;5025361;28;20567;-71
2021/05/14 12:08:55;;;;;;;14.35;12.00;;;;;;;;;;5033000;28;20194;-72
2021/05/14 12:11:21;;;;;;;13.70;11.82;;;;;;;;;;5027720;28;20327;-71
2021/05/14 12:13:47;;;;;;;14.55;11.70;;;;;;;;;;5035398;28;20194;-71
2021/05/14 12:16:14;;;;;;;13.35;11.82;;;;;;;;;;5030134;28;20231;-71
2021/05/14 12:18:53;;;;;;;14.77;11.63;;;;;;;;;;5033135;28;20190;-71
2021/05/14 12:21:25;;;;;;;13.63;11.02;;;;;;;;;;5023417;28;20178;-71
2021/05/14 12:23:51;;;;;;;15.38;11.40;;;;;;;;;;5039299;28;20963;-71
2021/05/14 12:26:16;;;;;;;13.60;11.20;;;;;;;;;;5028293;28;20182;-71
2021/05/14 12:28:46;;;;;;;12.85;11.43;;;;;;;;;;5036695;28;20209;-71
2021/05/14 12:31:14;;;;;;;12.27;10.57;;;;;;;;;;5022461;28;20209;-71
2021/05/14 12:33:56;;;;;;;12.68;11.15;;;;;;;;;;5034770;28;20185;-71
2021/05/14 12:36:24;;;;;;;13.23;11.63;;;;;;;;;;5016481;28;20205;-71
2021/05/14 12:38:50;;;;;;;14.00;11.85;;;;;;;;;;5027944;28;21301;-70
2021/05/14 12:41:18;;;;;;;14.27;11.93;;;;;;;;;;5021268;28;20260;-71
2021/05/14 12:43:44;;;;;;;13.52;10.90;;;;;;;;;;5026813;28;20229;-71
2021/05/14 12:46:09;;;;;;;12.55;11.25;;;;;;;;;;5028109;28;20568;-71
2021/05/14 12:48:35;;;;;;;13.73;11.25;;;;;;;;;;5018305;28;20194;-71
2021/05/14 12:51:00;;;;;;;15.13;11.55;;;;;;;;;;5028590;28;20213;-71
2021/05/14 12:53:25;;;;;;;12.65;11.00;;;;;;;;;;5011548;28;20243;-71
2021/05/14 12:55:51;;;;;;;15.93;11.50;;;;;;;;;;5025140;28;20197;-71
2021/05/14 12:58:16;;;;;;;15.52;11.05;;;;;;;;;;5017612;28;20293;-71
2021/05/14 13:00:41;;;;;;;13.68;11.23;;;;;;;;;;5027659;28;20185;-71
2021/05/14 13:03:12;;;;;;;16.00;11.60;;;;;;;;;;5020601;28;20670;-71
2021/05/14 13:05:42;;;;;;;14.32;11.40;;;;;;;;;;5029479;28;20623;-71
2021/05/14 13:08:15;;;;;;;12.23;10.38;;;;;;;;;;5018846;28;20190;-70
2021/05/14 13:10:46;;;;;;;12.95;10.93;;;;;;;;;;5029168;28;20275;-71
2021/05/14 13:13:14;;;;;;;13.05;10.43;;;;;;;;;;5019989;28;20198;-70
2021/05/14 13:15:39;;;;;;;10.70;9.55;;;;;;;;;;5026423;28;20300;-70
2021/05/14 13:18:06;;;;;;;13.27;11.07;;;;;;;;;;5025218;28;20205;-70
2021/05/14 13:20:32;;;;;;;10.65;9.55;;;;;;;;;;5025463;28;21789;-71
2021/05/14 13:22:58;;;;;;;12.20;10.55;;;;;;;;;;5023473;28;20197;-71
2021/05/14 13:25:24;;;;;;;13.07;11.57;;;;;;;;;;5019847;28;20754;-71
2021/05/14 13:27:49;;;;;;;12.43;10.90;;;;;;;;;;5028687;28;20247;-71
2021/05/14 13:30:15;;;;;;;13.18;10.95;;;;;;;;;;5017193;28;20203;-71
2021/05/14 13:32:41;;;;;;;10.57;9.48;;;;;;;;;;5025684;28;20648;-71
2021/05/14 13:35:07;;;;;;;11.65;10.23;;;;;;;;;;5013786;28;20186;-70
2021/05/14 13:37:32;;;;;;;13.38;11.25;;;;;;;;;;5026239;28;20197;-71
2021/05/14 13:39:59;;;;;;;13.18;10.65;;;;;;;;;;5018080;28;20327;-71
2021/05/14 13:42:24;;;;;;;11.90;9.93;;;;;;;;;;5030277;28;20209;-70
2021/05/14 13:44:49;;;;;;;13.23;10.38;;;;;;;;;;5019614;28;20285;-70
2021/05/14 13:47:15;;;;;;;13.60;10.98;;;;;;;;;;5027345;28;20210;-71
2021/05/14 13:49:41;;;;;;;13.02;11.40;;;;;;;;;;5026280;28;20189;-70
2021/05/14 13:52:06;;;;;;;15.35;11.27;;;;;;;;;;5020573;28;20216;-70
2021/05/14 13:54:32;;;;;;;15.75;11.00;;;;;;;;;;5028959;28;20194;-70
2021/05/14 13:56:57;;;;;;;10.75;9.60;;;;;;;;;;5021245;28;20209;-70
2021/05/14 13:59:22;;;;;;;10.75;9.65;;;;;;;;;;5027825;28;20547;-70
2021/05/14 14:01:49;;;;;;;12.73;9.88;;;;;;;;;;5022730;28;20213;-70
2021/05/14 14:04:15;;;;;;;10.70;9.57;;;;;;;;;;5026358;28;20912;-70
2021/05/14 14:06:40;;;;;;;13.32;9.98;;;;;;;;;;5016838;28;20190;-70
2021/05/14 14:09:05;;;;;;;10.98;8.98;;;;;;;;;;5026420;28;20186;-70
2021/05/14 14:11:31;;;;;;;11.63;9.18;;;;;;;;;;5011201;28;20720;-69
2021/05/14 14:13:57;;;;;;;11.15;9.65;;;;;;;;;;5027344;28;20586;-69
2021/05/14 14:16:22;;;;;;;12.50;9.93;;;;;;;;;;5014043;28;20562;-68
2021/05/14 14:18:47;;;;;;;12.60;9.45;;;;;;;;;;5028638;28;20271;-70
2021/05/14 14:21:13;;;;;;;17.13;10.00;;;;;;;;;;5025842;28;20183;-71
2021/05/14 14:23:38;;;;;;;12.18;10.23;;;;;;;;;;5018831;28;20297;-70